sensor_id;sensor_type;location;lat;lon;timestamp;temperature;humidity
65478;SHT31;53678;39.642;22.430;2023-04-09T00:00:37;12.36;82.66
65478;SHT31;53678;39.642;22.430;2023-04-09T00:03:03;12.24;82.94
65478;SHT31;53678;39.642;22.430;2023-04-09T00:05:28;12.08;83.53
65478;SHT31;53678;39.642;22.430;2023-04-09T00:07:54;12.12;83.12
65478;SHT31;53678;39.642;22.430;2023-04-09T00:10:20;12.25;83.31
65478;SHT31;53678;39.642;22.430;2023-04-09T00:12:46;12.02;84.04
65478;SHT31;53678;39.642;22.430;2023-04-09T00:15:12;12.05;84.42
65478;SHT31;53678;39.642;22.430;2023-04-09T00:17:38;11.95;84.54
65478;SHT31;53678;39.642;22.430;2023-04-09T00:20:05;11.92;84.74
65478;SHT31;53678;39.642;22.430;2023-04-09T00:22:32;11.88;84.44
65478;SHT31;53678;39.642;22.430;2023-04-09T00:24:57;12.05;84.50
65478;SHT31;53678;39.642;22.430;2023-04-09T00:27:23;11.97;84.65
65478;SHT31;53678;39.642;22.430;2023-04-09T00:29:49;11.87;85.25
65478;SHT31;53678;39.642;22.430;2023-04-09T00:32:14;11.84;85.20
65478;SHT31;53678;39.642;22.430;2023-04-09T00:34:40;11.70;85.95
65478;SHT31;53678;39.642;22.430;2023-04-09T00:37:06;11.78;85.67
65478;SHT31;53678;39.642;22.430;2023-04-09T00:39:32;11.78;85.69
65478;SHT31;53678;39.642;22.430;2023-04-09T00:41:59;11.75;86.13
65478;SHT31;53678;39.642;22.430;2023-04-09T00:44:27;11.82;85.11
65478;SHT31;53678;39.642;22.430;2023-04-09T00:46:53;11.81;84.79
65478;SHT31;53678;39.642;22.430;2023-04-09T00:49:19;11.75;84.97
65478;SHT31;53678;39.642;22.430;2023-04-09T00:51:45;11.75;85.05
65478;SHT31;53678;39.642;22.430;2023-04-09T00:54:12;11.75;85.57
65478;SHT31;53678;39.642;22.430;2023-04-09T00:56:39;11.81;85.71
65478;SHT31;53678;39.642;22.430;2023-04-09T00:59:04;11.64;86.49
65478;SHT31;53678;39.642;22.430;2023-04-09T01:01:30;11.60;86.90
65478;SHT31;53678;39.642;22.430;2023-04-09T01:03:56;11.61;87.02
65478;SHT31;53678;39.642;22.430;2023-04-09T01:06:37;11.60;86.57
65478;SHT31;53678;39.642;22.430;2023-04-09T01:09:13;11.58;85.86
65478;SHT31;53678;39.642;22.430;2023-04-09T01:11:49;11.57;86.61
65478;SHT31;53678;39.642;22.430;2023-04-09T01:14:28;11.57;86.54
65478;SHT31;53678;39.642;22.430;2023-04-09T01:17:09;11.50;86.95
65478;SHT31;53678;39.642;22.430;2023-04-09T01:22:07;11.23;87.73
65478;SHT31;53678;39.642;22.430;2023-04-09T01:24:56;11.26;87.99
65478;SHT31;53678;39.642;22.430;2023-04-09T01:27:39;11.05;88.95
65478;SHT31;53678;39.642;22.430;2023-04-09T01:30:12;11.06;88.98
65478;SHT31;53678;39.642;22.430;2023-04-09T01:32:39;11.02;88.80
65478;SHT31;53678;39.642;22.430;2023-04-09T01:35:07;11.00;88.22
65478;SHT31;53678;39.642;22.430;2023-04-09T01:37:34;10.93;87.51
65478;SHT31;53678;39.642;22.430;2023-04-09T01:40:00;10.96;87.52
65478;SHT31;53678;39.642;22.430;2023-04-09T01:42:27;11.03;86.44
65478;SHT31;53678;39.642;22.430;2023-04-09T01:44:53;11.05;86.97
65478;SHT31;53678;39.642;22.430;2023-04-09T01:47:20;11.05;86.93
65478;SHT31;53678;39.642;22.430;2023-04-09T01:49:46;10.98;86.12
65478;SHT31;53678;39.642;22.430;2023-04-09T01:52:11;11.16;87.19
65478;SHT31;53678;39.642;22.430;2023-04-09T01:54:37;11.13;85.03
65478;SHT31;53678;39.642;22.430;2023-04-09T01:57:03;11.08;84.02
65478;SHT31;53678;39.642;22.430;2023-04-09T01:59:29;11.08;84.15
65478;SHT31;53678;39.642;22.430;2023-04-09T02:02:07;11.09;82.87
65478;SHT31;53678;39.642;22.430;2023-04-09T02:04:41;11.26;82.57
65478;SHT31;53678;39.642;22.430;2023-04-09T02:09:53;11.03;82.66
65478;SHT31;53678;39.642;22.430;2023-04-09T02:12:19;10.98;83.52
65478;SHT31;53678;39.642;22.430;2023-04-09T02:14:47;11.12;83.24
65478;SHT31;53678;39.642;22.430;2023-04-09T02:17:14;11.26;81.03
65478;SHT31;53678;39.642;22.430;2023-04-09T02:19:46;11.41;80.12
65478;SHT31;53678;39.642;22.430;2023-04-09T02:22:13;11.24;81.22
65478;SHT31;53678;39.642;22.430;2023-04-09T02:24:39;11.29;81.52
65478;SHT31;53678;39.642;22.430;2023-04-09T02:27:06;11.24;82.40
65478;SHT31;53678;39.642;22.430;2023-04-09T02:29:32;11.31;81.56
65478;SHT31;53678;39.642;22.430;2023-04-09T02:31:58;11.26;82.81
65478;SHT31;53678;39.642;22.430;2023-04-09T02:34:25;11.15;82.55
65478;SHT31;53678;39.642;22.430;2023-04-09T02:36:51;11.05;83.18
65478;SHT31;53678;39.642;22.430;2023-04-09T02:39:16;11.12;84.02
65478;SHT31;53678;39.642;22.430;2023-04-09T02:41:44;11.13;84.55
65478;SHT31;53678;39.642;22.430;2023-04-09T02:44:10;11.15;84.64
65478;SHT31;53678;39.642;22.430;2023-04-09T02:46:37;11.12;85.14
65478;SHT31;53678;39.642;22.430;2023-04-09T02:49:03;11.09;85.44
65478;SHT31;53678;39.642;22.430;2023-04-09T02:51:29;11.08;85.92
65478;SHT31;53678;39.642;22.430;2023-04-09T02:53:54;11.13;86.84
65478;SHT31;53678;39.642;22.430;2023-04-09T02:56:21;11.19;86.93
65478;SHT31;53678;39.642;22.430;2023-04-09T02:58:47;11.19;87.15
65478;SHT31;53678;39.642;22.430;2023-04-09T03:01:14;11.10;88.08
65478;SHT31;53678;39.642;22.430;2023-04-09T03:03:40;11.15;88.20
65478;SHT31;53678;39.642;22.430;2023-04-09T03:06:07;11.19;88.13
65478;SHT31;53678;39.642;22.430;2023-04-09T03:08:32;11.15;88.27
65478;SHT31;53678;39.642;22.430;2023-04-09T03:10:59;11.18;88.66
65478;SHT31;53678;39.642;22.430;2023-04-09T03:13:26;11.19;88.77
65478;SHT31;53678;39.642;22.430;2023-04-09T03:15:52;11.19;88.79
65478;SHT31;53678;39.642;22.430;2023-04-09T03:18:20;11.05;88.87
65478;SHT31;53678;39.642;22.430;2023-04-09T03:20:45;11.19;88.60
65478;SHT31;53678;39.642;22.430;2023-04-09T03:23:13;11.03;88.88
65478;SHT31;53678;39.642;22.430;2023-04-09T03:25:43;10.99;89.70
65478;SHT31;53678;39.642;22.430;2023-04-09T03:28:18;11.12;89.23
65478;SHT31;53678;39.642;22.430;2023-04-09T03:30:50;11.27;87.97
65478;SHT31;53678;39.642;22.430;2023-04-09T03:33:17;11.29;87.87
65478;SHT31;53678;39.642;22.430;2023-04-09T03:35:53;11.22;88.37
65478;SHT31;53678;39.642;22.430;2023-04-09T03:38:29;11.16;88.22
65478;SHT31;53678;39.642;22.430;2023-04-09T03:40:57;11.24;88.52
65478;SHT31;53678;39.642;22.430;2023-04-09T03:43:23;11.18;88.10
65478;SHT31;53678;39.642;22.430;2023-04-09T03:45:51;11.15;88.06
65478;SHT31;53678;39.642;22.430;2023-04-09T03:48:21;11.23;87.88
65478;SHT31;53678;39.642;22.430;2023-04-09T03:50:47;11.30;87.68
65478;SHT31;53678;39.642;22.430;2023-04-09T03:53:19;11.34;88.16
65478;SHT31;53678;39.642;22.430;2023-04-09T03:55:45;11.39;88.89
65478;SHT31;53678;39.642;22.430;2023-04-09T03:58:19;11.40;88.67
65478;SHT31;53678;39.642;22.430;2023-04-09T04:00:46;11.40;88.49
65478;SHT31;53678;39.642;22.430;2023-04-09T04:03:33;11.37;88.12
65478;SHT31;53678;39.642;22.430;2023-04-09T04:06:14;11.34;88.29
65478;SHT31;53678;39.642;22.430;2023-04-09T04:09:13;11.23;88.12
65478;SHT31;53678;39.642;22.430;2023-04-09T04:11:44;11.23;88.73
65478;SHT31;53678;39.642;22.430;2023-04-09T04:14:10;11.29;88.63
65478;SHT31;53678;39.642;22.430;2023-04-09T04:16:39;11.20;88.40
65478;SHT31;53678;39.642;22.430;2023-04-09T04:19:06;11.30;88.21
65478;SHT31;53678;39.642;22.430;2023-04-09T04:21:39;11.36;87.93
65478;SHT31;53678;39.642;22.430;2023-04-09T04:24:05;11.39;88.43
65478;SHT31;53678;39.642;22.430;2023-04-09T04:26:31;11.27;87.87
65478;SHT31;53678;39.642;22.430;2023-04-09T04:28:57;11.30;87.37
65478;SHT31;53678;39.642;22.430;2023-04-09T04:31:42;11.43;87.83
65478;SHT31;53678;39.642;22.430;2023-04-09T04:34:09;11.54;87.13
65478;SHT31;53678;39.642;22.430;2023-04-09T04:36:35;11.57;86.86
65478;SHT31;53678;39.642;22.430;2023-04-09T04:39:03;11.40;87.80
65478;SHT31;53678;39.642;22.430;2023-04-09T04:41:33;11.37;87.91
65478;SHT31;53678;39.642;22.430;2023-04-09T04:44:08;11.34;87.48
65478;SHT31;53678;39.642;22.430;2023-04-09T04:46:33;11.31;88.10
65478;SHT31;53678;39.642;22.430;2023-04-09T04:48:59;11.66;86.74
65478;SHT31;53678;39.642;22.430;2023-04-09T04:51:30;11.57;86.52
65478;SHT31;53678;39.642;22.430;2023-04-09T04:54:03;11.67;86.62
65478;SHT31;53678;39.642;22.430;2023-04-09T04:56:29;11.60;85.59
65478;SHT31;53678;39.642;22.430;2023-04-09T04:59:07;11.56;85.71
65478;SHT31;53678;39.642;22.430;2023-04-09T05:01:48;11.67;84.96
65478;SHT31;53678;39.642;22.430;2023-04-09T05:04:14;11.73;84.61
65478;SHT31;53678;39.642;22.430;2023-04-09T05:06:40;11.77;83.63
65478;SHT31;53678;39.642;22.430;2023-04-09T05:09:11;11.88;83.20
65478;SHT31;53678;39.642;22.430;2023-04-09T05:11:44;12.01;83.02
65478;SHT31;53678;39.642;22.430;2023-04-09T05:14:15;12.12;82.34
65478;SHT31;53678;39.642;22.430;2023-04-09T05:16:42;12.15;82.47
65478;SHT31;53678;39.642;22.430;2023-04-09T05:19:08;12.29;82.10
65478;SHT31;53678;39.642;22.430;2023-04-09T05:21:36;12.05;84.16
65478;SHT31;53678;39.642;22.430;2023-04-09T05:24:01;11.94;84.35
65478;SHT31;53678;39.642;22.430;2023-04-09T05:26:30;11.89;85.45
65478;SHT31;53678;39.642;22.430;2023-04-09T05:28:58;11.85;86.10
65478;SHT31;53678;39.642;22.430;2023-04-09T05:31:24;11.91;85.86
65478;SHT31;53678;39.642;22.430;2023-04-09T05:33:58;11.87;85.97
65478;SHT31;53678;39.642;22.430;2023-04-09T05:36:33;11.82;84.21
65478;SHT31;53678;39.642;22.430;2023-04-09T05:39:00;11.95;83.39
65478;SHT31;53678;39.642;22.430;2023-04-09T05:41:26;12.12;82.54
65478;SHT31;53678;39.642;22.430;2023-04-09T05:44:12;12.24;82.51
65478;SHT31;53678;39.642;22.430;2023-04-09T05:46:38;12.37;81.93
65478;SHT31;53678;39.642;22.430;2023-04-09T05:49:05;12.59;81.44
65478;SHT31;53678;39.642;22.430;2023-04-09T05:51:33;12.61;81.51
65478;SHT31;53678;39.642;22.430;2023-04-09T05:53:59;12.74;80.21
65478;SHT31;53678;39.642;22.430;2023-04-09T05:56:29;12.74;80.20
65478;SHT31;53678;39.642;22.430;2023-04-09T05:58:58;12.50;80.83
65478;SHT31;53678;39.642;22.430;2023-04-09T06:01:26;12.40;81.50
65478;SHT31;53678;39.642;22.430;2023-04-09T06:03:52;12.88;79.71
65478;SHT31;53678;39.642;22.430;2023-04-09T06:06:20;12.88;79.24
65478;SHT31;53678;39.642;22.430;2023-04-09T06:08:49;13.11;78.71
65478;SHT31;53678;39.642;22.430;2023-04-09T06:11:14;13.38;77.48
65478;SHT31;53678;39.642;22.430;2023-04-09T06:13:40;13.58;77.22
65478;SHT31;53678;39.642;22.430;2023-04-09T06:16:07;13.35;76.79
65478;SHT31;53678;39.642;22.430;2023-04-09T06:18:35;13.29;77.56
65478;SHT31;53678;39.642;22.430;2023-04-09T06:21:05;13.28;77.84
65478;SHT31;53678;39.642;22.430;2023-04-09T06:23:35;13.29;77.70
65478;SHT31;53678;39.642;22.430;2023-04-09T06:26:02;13.31;78.03
65478;SHT31;53678;39.642;22.430;2023-04-09T06:28:28;13.36;76.75
65478;SHT31;53678;39.642;22.430;2023-04-09T06:30:55;13.51;76.89
65478;SHT31;53678;39.642;22.430;2023-04-09T06:33:20;13.73;76.60
65478;SHT31;53678;39.642;22.430;2023-04-09T06:35:47;13.66;76.19
65478;SHT31;53678;39.642;22.430;2023-04-09T06:38:16;13.70;76.96
65478;SHT31;53678;39.642;22.430;2023-04-09T06:40:43;13.94;76.65
65478;SHT31;53678;39.642;22.430;2023-04-09T06:43:10;14.04;76.47
65478;SHT31;53678;39.642;22.430;2023-04-09T06:46:03;14.25;76.38
65478;SHT31;53678;39.642;22.430;2023-04-09T06:48:29;14.06;76.06
65478;SHT31;53678;39.642;22.430;2023-04-09T06:50:55;14.28;75.31
65478;SHT31;53678;39.642;22.430;2023-04-09T06:53:21;14.28;74.06
65478;SHT31;53678;39.642;22.430;2023-04-09T06:55:49;13.99;74.76
65478;SHT31;53678;39.642;22.430;2023-04-09T06:58:17;13.86;75.52
65478;SHT31;53678;39.642;22.430;2023-04-09T07:00:45;14.04;75.17
65478;SHT31;53678;39.642;22.430;2023-04-09T07:03:13;14.00;71.35
65478;SHT31;53678;39.642;22.430;2023-04-09T07:05:39;14.22;71.06
65478;SHT31;53678;39.642;22.430;2023-04-09T07:08:06;14.51;70.20
65478;SHT31;53678;39.642;22.430;2023-04-09T07:10:32;14.48;69.85
65478;SHT31;53678;39.642;22.430;2023-04-09T07:12:58;14.32;70.03
65478;SHT31;53678;39.642;22.430;2023-04-09T07:15:23;14.37;70.71
65478;SHT31;53678;39.642;22.430;2023-04-09T07:17:49;14.17;71.09
65478;SHT31;53678;39.642;22.430;2023-04-09T07:20:16;14.35;71.11
65478;SHT31;53678;39.642;22.430;2023-04-09T07:22:42;14.38;71.44
65478;SHT31;53678;39.642;22.430;2023-04-09T07:25:09;14.46;70.74
65478;SHT31;53678;39.642;22.430;2023-04-09T07:27:36;14.25;70.75
65478;SHT31;53678;39.642;22.430;2023-04-09T07:30:02;14.31;70.60
65478;SHT31;53678;39.642;22.430;2023-04-09T07:32:32;14.20;70.49
65478;SHT31;53678;39.642;22.430;2023-04-09T07:34:58;14.07;70.05
65478;SHT31;53678;39.642;22.430;2023-04-09T07:37:24;14.20;70.63
65478;SHT31;53678;39.642;22.430;2023-04-09T07:39:51;14.24;70.70
65478;SHT31;53678;39.642;22.430;2023-04-09T07:42:17;14.07;71.13
65478;SHT31;53678;39.642;22.430;2023-04-09T07:44:42;14.11;70.19
65478;SHT31;53678;39.642;22.430;2023-04-09T07:47:08;14.18;69.81
65478;SHT31;53678;39.642;22.430;2023-04-09T07:49:35;14.52;70.02
65478;SHT31;53678;39.642;22.430;2023-04-09T07:52:02;14.64;68.86
65478;SHT31;53678;39.642;22.430;2023-04-09T07:54:28;14.69;68.25
65478;SHT31;53678;39.642;22.430;2023-04-09T07:56:56;14.85;68.04
65478;SHT31;53678;39.642;22.430;2023-04-09T07:59:23;14.67;68.31
65478;SHT31;53678;39.642;22.430;2023-04-09T08:01:54;14.54;67.77
65478;SHT31;53678;39.642;22.430;2023-04-09T08:04:20;14.46;67.81
65478;SHT31;53678;39.642;22.430;2023-04-09T08:06:47;14.48;67.46
65478;SHT31;53678;39.642;22.430;2023-04-09T08:09:20;14.38;67.68
65478;SHT31;53678;39.642;22.430;2023-04-09T08:11:47;14.31;67.78
65478;SHT31;53678;39.642;22.430;2023-04-09T08:14:16;14.45;68.18
65478;SHT31;53678;39.642;22.430;2023-04-09T08:16:47;14.44;68.76
65478;SHT31;53678;39.642;22.430;2023-04-09T08:19:15;14.49;68.56
65478;SHT31;53678;39.642;22.430;2023-04-09T08:21:42;14.57;68.49
65478;SHT31;53678;39.642;22.430;2023-04-09T08:24:10;14.54;69.11
65478;SHT31;53678;39.642;22.430;2023-04-09T08:26:37;14.68;69.04
65478;SHT31;53678;39.642;22.430;2023-04-09T08:29:03;14.71;68.10
65478;SHT31;53678;39.642;22.430;2023-04-09T08:31:29;14.34;68.10
65478;SHT31;53678;39.642;22.430;2023-04-09T08:33:55;14.58;68.92
65478;SHT31;53678;39.642;22.430;2023-04-09T08:36:22;14.72;67.62
65478;SHT31;53678;39.642;22.430;2023-04-09T08:38:47;14.48;67.96
65478;SHT31;53678;39.642;22.430;2023-04-09T08:41:24;14.41;68.91
65478;SHT31;53678;39.642;22.430;2023-04-09T08:43:52;14.55;66.86
65478;SHT31;53678;39.642;22.430;2023-04-09T08:46:21;14.68;67.32
65478;SHT31;53678;39.642;22.430;2023-04-09T08:48:48;14.55;67.19
65478;SHT31;53678;39.642;22.430;2023-04-09T08:51:20;14.69;66.95
65478;SHT31;53678;39.642;22.430;2023-04-09T08:53:58;14.78;65.72
65478;SHT31;53678;39.642;22.430;2023-04-09T08:56:25;14.98;65.68
65478;SHT31;53678;39.642;22.430;2023-04-09T08:58:54;15.00;64.26
65478;SHT31;53678;39.642;22.430;2023-04-09T09:01:23;15.02;65.25
65478;SHT31;53678;39.642;22.430;2023-04-09T09:04:07;14.98;65.78
65478;SHT31;53678;39.642;22.430;2023-04-09T09:06:37;14.86;64.10
65478;SHT31;53678;39.642;22.430;2023-04-09T09:11:32;15.17;64.91
65478;SHT31;53678;39.642;22.430;2023-04-09T09:14:06;15.34;64.56
65478;SHT31;53678;39.642;22.430;2023-04-09T09:16:34;15.43;63.36
65478;SHT31;53678;39.642;22.430;2023-04-09T09:19:01;15.40;62.51
65478;SHT31;53678;39.642;22.430;2023-04-09T09:21:28;15.16;64.66
65478;SHT31;53678;39.642;22.430;2023-04-09T09:23:56;15.38;63.71
65478;SHT31;53678;39.642;22.430;2023-04-09T09:26:24;15.16;63.31
65478;SHT31;53678;39.642;22.430;2023-04-09T09:28:52;15.27;63.97
65478;SHT31;53678;39.642;22.430;2023-04-09T09:31:19;15.26;63.35
65478;SHT31;53678;39.642;22.430;2023-04-09T09:33:46;15.24;63.15
65478;SHT31;53678;39.642;22.430;2023-04-09T09:36:14;15.26;63.13
65478;SHT31;53678;39.642;22.430;2023-04-09T09:38:56;15.20;63.23
65478;SHT31;53678;39.642;22.430;2023-04-09T09:41:23;15.23;63.60
65478;SHT31;53678;39.642;22.430;2023-04-09T09:43:52;15.27;63.12
65478;SHT31;53678;39.642;22.430;2023-04-09T09:46:20;15.16;63.20
65478;SHT31;53678;39.642;22.430;2023-04-09T09:48:50;15.11;63.46
65478;SHT31;53678;39.642;22.430;2023-04-09T09:51:16;15.30;62.98
65478;SHT31;53678;39.642;22.430;2023-04-09T09:53:44;15.29;63.90
65478;SHT31;53678;39.642;22.430;2023-04-09T09:56:15;15.29;63.43
65478;SHT31;53678;39.642;22.430;2023-04-09T09:59:09;15.30;62.68
65478;SHT31;53678;39.642;22.430;2023-04-09T10:01:36;15.30;62.77
65478;SHT31;53678;39.642;22.430;2023-04-09T10:04:05;15.51;62.47
65478;SHT31;53678;39.642;22.430;2023-04-09T10:06:32;15.37;62.85
65478;SHT31;53678;39.642;22.430;2023-04-09T10:09:03;15.69;63.08
65478;SHT31;53678;39.642;22.430;2023-04-09T10:11:32;15.89;62.56
65478;SHT31;53678;39.642;22.430;2023-04-09T10:13:58;15.64;62.65
65478;SHT31;53678;39.642;22.430;2023-04-09T10:16:25;15.51;62.90
65478;SHT31;53678;39.642;22.430;2023-04-09T10:18:57;15.36;62.09
65478;SHT31;53678;39.642;22.430;2023-04-09T10:24:00;15.34;61.96
65478;SHT31;53678;39.642;22.430;2023-04-09T10:26:34;15.53;62.88
65478;SHT31;53678;39.642;22.430;2023-04-09T10:29:06;15.78;61.76
65478;SHT31;53678;39.642;22.430;2023-04-09T10:32:02;15.95;61.58
65478;SHT31;53678;39.642;22.430;2023-04-09T10:34:28;16.04;61.95
65478;SHT31;53678;39.642;22.430;2023-04-09T10:36:57;16.57;59.55
65478;SHT31;53678;39.642;22.430;2023-04-09T10:39:26;16.80;59.68
65478;SHT31;53678;39.642;22.430;2023-04-09T10:41:55;16.70;57.73
65478;SHT31;53678;39.642;22.430;2023-04-09T10:44:25;16.75;57.35
65478;SHT31;53678;39.642;22.430;2023-04-09T10:46:54;16.73;57.29
65478;SHT31;53678;39.642;22.430;2023-04-09T10:49:23;16.64;57.69
65478;SHT31;53678;39.642;22.430;2023-04-09T10:52:03;16.39;58.88
65478;SHT31;53678;39.642;22.430;2023-04-09T10:54:36;16.71;59.15
65478;SHT31;53678;39.642;22.430;2023-04-09T10:57:09;16.64;58.42
65478;SHT31;53678;39.642;22.430;2023-04-09T10:59:37;16.40;59.96
65478;SHT31;53678;39.642;22.430;2023-04-09T11:02:08;16.32;59.37
65478;SHT31;53678;39.642;22.430;2023-04-09T11:04:42;16.70;59.16
65478;SHT31;53678;39.642;22.430;2023-04-09T11:07:14;16.75;58.46
65478;SHT31;53678;39.642;22.430;2023-04-09T11:09:42;16.44;58.83
65478;SHT31;53678;39.642;22.430;2023-04-09T11:12:12;16.22;59.72
65478;SHT31;53678;39.642;22.430;2023-04-09T11:14:40;16.19;59.99
65478;SHT31;53678;39.642;22.430;2023-04-09T11:17:07;16.25;59.42
65478;SHT31;53678;39.642;22.430;2023-04-09T11:19:33;16.13;59.46
65478;SHT31;53678;39.642;22.430;2023-04-09T11:21:59;16.19;59.47
65478;SHT31;53678;39.642;22.430;2023-04-09T11:24:25;16.42;59.04
65478;SHT31;53678;39.642;22.430;2023-04-09T11:26:53;16.53;59.79
65478;SHT31;53678;39.642;22.430;2023-04-09T11:29:21;16.71;58.75
65478;SHT31;53678;39.642;22.430;2023-04-09T11:31:47;16.63;58.51
65478;SHT31;53678;39.642;22.430;2023-04-09T11:34:13;16.61;58.55
65478;SHT31;53678;39.642;22.430;2023-04-09T11:36:39;16.78;59.25
65478;SHT31;53678;39.642;22.430;2023-04-09T11:39:05;16.74;58.47
65478;SHT31;53678;39.642;22.430;2023-04-09T11:41:37;16.53;58.84
65478;SHT31;53678;39.642;22.430;2023-04-09T11:44:03;16.61;58.97
65478;SHT31;53678;39.642;22.430;2023-04-09T11:46:33;16.66;57.70
65478;SHT31;53678;39.642;22.430;2023-04-09T11:49:00;16.68;58.84
65478;SHT31;53678;39.642;22.430;2023-04-09T11:51:27;16.89;59.15
65478;SHT31;53678;39.642;22.430;2023-04-09T11:54:02;17.02;58.65
65478;SHT31;53678;39.642;22.430;2023-04-09T11:56:29;17.10;58.23
65478;SHT31;53678;39.642;22.430;2023-04-09T11:58:56;17.01;58.14
65478;SHT31;53678;39.642;22.430;2023-04-09T12:01:22;17.00;58.38
65478;SHT31;53678;39.642;22.430;2023-04-09T12:03:52;16.98;59.89
65478;SHT31;53678;39.642;22.430;2023-04-09T12:06:21;16.80;59.79
65478;SHT31;53678;39.642;22.430;2023-04-09T12:08:52;17.05;59.54
65478;SHT31;53678;39.642;22.430;2023-04-09T12:11:19;16.80;59.17
65478;SHT31;53678;39.642;22.430;2023-04-09T12:13:48;16.70;61.01
65478;SHT31;53678;39.642;22.430;2023-04-09T12:16:18;16.47;59.90
65478;SHT31;53678;39.642;22.430;2023-04-09T12:18:46;16.53;60.29
65478;SHT31;53678;39.642;22.430;2023-04-09T12:21:12;16.88;60.43
65478;SHT31;53678;39.642;22.430;2023-04-09T12:23:38;17.05;61.14
65478;SHT31;53678;39.642;22.430;2023-04-09T12:26:04;16.71;60.68
65478;SHT31;53678;39.642;22.430;2023-04-09T12:28:29;16.98;61.37
65478;SHT31;53678;39.642;22.430;2023-04-09T12:30:56;16.73;60.99
65478;SHT31;53678;39.642;22.430;2023-04-09T12:33:24;16.43;61.99
65478;SHT31;53678;39.642;22.430;2023-04-09T12:35:52;16.43;63.41
65478;SHT31;53678;39.642;22.430;2023-04-09T12:38:21;16.06;64.03
65478;SHT31;53678;39.642;22.430;2023-04-09T12:40:46;16.19;64.48
65478;SHT31;53678;39.642;22.430;2023-04-09T12:43:16;15.98;64.49
65478;SHT31;53678;39.642;22.430;2023-04-09T12:45:43;15.95;64.99
65478;SHT31;53678;39.642;22.430;2023-04-09T12:48:08;16.19;65.08
65478;SHT31;53678;39.642;22.430;2023-04-09T12:50:35;16.05;63.64
65478;SHT31;53678;39.642;22.430;2023-04-09T12:53:01;15.91;64.45
65478;SHT31;53678;39.642;22.430;2023-04-09T12:55:27;15.88;64.42
65478;SHT31;53678;39.642;22.430;2023-04-09T12:57:55;15.87;66.61
65478;SHT31;53678;39.642;22.430;2023-04-09T13:00:20;15.84;67.43
65478;SHT31;53678;39.642;22.430;2023-04-09T13:02:47;15.69;67.59
65478;SHT31;53678;39.642;22.430;2023-04-09T13:05:13;15.59;68.80
65478;SHT31;53678;39.642;22.430;2023-04-09T13:07:38;15.44;69.40
65478;SHT31;53678;39.642;22.430;2023-04-09T13:10:05;15.46;68.91
65478;SHT31;53678;39.642;22.430;2023-04-09T13:12:32;15.34;70.06
65478;SHT31;53678;39.642;22.430;2023-04-09T13:14:57;15.37;69.62
65478;SHT31;53678;39.642;22.430;2023-04-09T13:17:23;15.36;69.31
65478;SHT31;53678;39.642;22.430;2023-04-09T13:19:49;15.20;68.11
65478;SHT31;53678;39.642;22.430;2023-04-09T13:22:17;15.29;67.69
65478;SHT31;53678;39.642;22.430;2023-04-09T13:24:43;15.26;68.63
65478;SHT31;53678;39.642;22.430;2023-04-09T13:27:09;15.41;67.88
65478;SHT31;53678;39.642;22.430;2023-04-09T13:29:35;15.30;67.80
65478;SHT31;53678;39.642;22.430;2023-04-09T13:32:02;15.20;69.17
65478;SHT31;53678;39.642;22.430;2023-04-09T13:34:33;14.96;70.09
65478;SHT31;53678;39.642;22.430;2023-04-09T13:37:00;14.83;70.93
65478;SHT31;53678;39.642;22.430;2023-04-09T13:39:26;14.75;70.01
65478;SHT31;53678;39.642;22.430;2023-04-09T13:41:52;14.85;69.72
65478;SHT31;53678;39.642;22.430;2023-04-09T13:44:20;14.79;70.20
65478;SHT31;53678;39.642;22.430;2023-04-09T13:46:46;14.80;69.91
65478;SHT31;53678;39.642;22.430;2023-04-09T13:49:11;14.75;70.19
65478;SHT31;53678;39.642;22.430;2023-04-09T13:51:37;14.67;69.52
65478;SHT31;53678;39.642;22.430;2023-04-09T13:54:03;14.52;68.25
65478;SHT31;53678;39.642;22.430;2023-04-09T13:56:30;14.48;68.55
65478;SHT31;53678;39.642;22.430;2023-04-09T13:58:55;14.61;68.69
65478;SHT31;53678;39.642;22.430;2023-04-09T14:01:21;14.42;70.32
65478;SHT31;53678;39.642;22.430;2023-04-09T14:03:50;14.35;69.48
65478;SHT31;53678;39.642;22.430;2023-04-09T14:06:15;14.27;68.49
65478;SHT31;53678;39.642;22.430;2023-04-09T14:08:41;14.21;69.58
65478;SHT31;53678;39.642;22.430;2023-04-09T14:11:07;14.04;70.57
65478;SHT31;53678;39.642;22.430;2023-04-09T14:13:33;13.94;71.77
65478;SHT31;53678;39.642;22.430;2023-04-09T14:15:58;13.93;73.68
65478;SHT31;53678;39.642;22.430;2023-04-09T14:18:26;13.89;74.54
65478;SHT31;53678;39.642;22.430;2023-04-09T14:20:52;13.74;74.93
65478;SHT31;53678;39.642;22.430;2023-04-09T14:23:18;13.58;74.43
65478;SHT31;53678;39.642;22.430;2023-04-09T14:25:43;13.65;75.48
65478;SHT31;53678;39.642;22.430;2023-04-09T14:28:10;13.56;74.96
65478;SHT31;53678;39.642;22.430;2023-04-09T14:30:37;13.61;76.04
65478;SHT31;53678;39.642;22.430;2023-04-09T14:33:03;13.65;76.15
65478;SHT31;53678;39.642;22.430;2023-04-09T14:35:29;13.82;78.86
65478;SHT31;53678;39.642;22.430;2023-04-09T14:37:55;13.86;81.37
65478;SHT31;53678;39.642;22.430;2023-04-09T14:40:22;13.74;82.85
65478;SHT31;53678;39.642;22.430;2023-04-09T14:42:48;13.70;82.74
65478;SHT31;53678;39.642;22.430;2023-04-09T14:45:16;13.45;80.46
65478;SHT31;53678;39.642;22.430;2023-04-09T14:47:42;13.11;75.97
65478;SHT31;53678;39.642;22.430;2023-04-09T14:50:10;13.25;77.49
65478;SHT31;53678;39.642;22.430;2023-04-09T14:52:37;13.12;77.52
65478;SHT31;53678;39.642;22.430;2023-04-09T14:55:03;12.93;77.65
65478;SHT31;53678;39.642;22.430;2023-04-09T14:57:29;12.79;78.06
65478;SHT31;53678;39.642;22.430;2023-04-09T14:59:55;12.50;79.02
65478;SHT31;53678;39.642;22.430;2023-04-09T15:02:21;12.61;80.31
65478;SHT31;53678;39.642;22.430;2023-04-09T15:04:48;12.49;82.01
65478;SHT31;53678;39.642;22.430;2023-04-09T15:07:14;12.37;82.96
65478;SHT31;53678;39.642;22.430;2023-04-09T15:09:39;12.30;84.70
65478;SHT31;53678;39.642;22.430;2023-04-09T15:12:07;12.21;85.81
65478;SHT31;53678;39.642;22.430;2023-04-09T15:14:36;12.15;84.74
65478;SHT31;53678;39.642;22.430;2023-04-09T15:17:02;11.99;88.02
65478;SHT31;53678;39.642;22.430;2023-04-09T15:19:28;12.01;88.13
65478;SHT31;53678;39.642;22.430;2023-04-09T15:21:56;12.06;87.85
65478;SHT31;53678;39.642;22.430;2023-04-09T15:24:22;12.08;88.06
65478;SHT31;53678;39.642;22.430;2023-04-09T15:26:48;12.14;87.57
65478;SHT31;53678;39.642;22.430;2023-04-09T15:29:14;12.11;87.62
65478;SHT31;53678;39.642;22.430;2023-04-09T15:31:39;12.01;87.68